sensor_id;sensor_type;location;lat;lon;timestamp;pressure;altitude;pressure_sealevel;temperature;humidity
9899;BME280;4988;49.238;6.698;2023-04-25T00:01:30;98574.66;;;8.02;100.00
9899;BME280;4988;49.238;6.698;2023-04-25T00:03:57;98577.78;;;8.12;100.00
9899;BME280;4988;49.238;6.698;2023-04-25T00:06:22;98570.06;;;8.05;100.00
9899;BME280;4988;49.238;6.698;2023-04-25T00:08:52;98570.88;;;8.08;100.00
9899;BME280;4988;49.238;6.698;2023-04-25T00:11:17;98574.44;;;8.07;100.00
9899;BME280;4988;49.238;6.698;2023-04-25T00:13:42;98577.09;;;8.07;100.00
9899;BME280;4988;49.238;6.698;2023-04-25T00:16:08;98583.13;;;7.89;100.00
9899;BME280;4988;49.238;6.698;2023-04-25T00:18:33;98586.56;;;7.72;100.00
9899;BME280;4988;49.238;6.698;2023-04-25T00:20:58;98582.91;;;7.54;100.00
9899;BME280;4988;49.238;6.698;2023-04-25T00:23:24;98578.06;;;7.64;100.00
9899;BME280;4988;49.238;6.698;2023-04-25T00:25:49;98579.53;;;7.51;100.00
9899;BME280;4988;49.238;6.698;2023-04-25T00:28:15;98578.44;;;7.55;100.00
9899;BME280;4988;49.238;6.698;2023-04-25T00:30:41;98574.63;;;7.62;100.00
9899;BME280;4988;49.238;6.698;2023-04-25T00:33:07;98580.91;;;7.60;100.00
9899;BME280;4988;49.238;6.698;2023-04-25T00:35:33;98585.16;;;7.64;100.00
9899;BME280;4988;49.238;6.698;2023-04-25T00:37:58;98581.66;;;7.63;100.00
9899;BME280;4988;49.238;6.698;2023-04-25T00:40:24;98570.78;;;7.69;100.00
9899;BME280;4988;49.238;6.698;2023-04-25T00:42:50;98579.25;;;7.78;100.00
9899;BME280;4988;49.238;6.698;2023-04-25T00:45:17;98577.53;;;7.77;100.00
9899;BME280;4988;49.238;6.698;2023-04-25T00:47:43;98562.75;;;7.71;100.00
9899;BME280;4988;49.238;6.698;2023-04-25T00:50:09;98559.19;;;7.72;100.00
9899;BME280;4988;49.238;6.698;2023-04-25T00:52:35;98560.78;;;7.76;100.00
9899;BME280;4988;49.238;6.698;2023-04-25T00:55:01;98559.91;;;7.76;100.00
9899;BME280;4988;49.238;6.698;2023-04-25T00:57:26;98556.22;;;7.80;100.00
9899;BME280;4988;49.238;6.698;2023-04-25T00:59:52;98559.06;;;7.75;100.00
9899;BME280;4988;49.238;6.698;2023-04-25T01:02:18;98558.88;;;7.80;100.00
9899;BME280;4988;49.238;6.698;2023-04-25T01:04:45;98557.69;;;7.66;100.00
9899;BME280;4988;49.238;6.698;2023-04-25T01:07:11;98566.09;;;7.76;100.00
9899;BME280;4988;49.238;6.698;2023-04-25T01:09:36;98558.19;;;7.75;100.00
9899;BME280;4988;49.238;6.698;2023-04-25T01:12:02;98557.53;;;7.69;100.00
9899;BME280;4988;49.238;6.698;2023-04-25T01:14:28;98556.72;;;7.67;100.00
9899;BME280;4988;49.238;6.698;2023-04-25T01:16:54;98554.31;;;7.63;100.00
9899;BME280;4988;49.238;6.698;2023-04-25T01:19:19;98561.06;;;7.70;100.00
9899;BME280;4988;49.238;6.698;2023-04-25T01:21:45;98555.69;;;7.71;100.00
9899;BME280;4988;49.238;6.698;2023-04-25T01:24:10;98558.59;;;7.65;100.00
9899;BME280;4988;49.238;6.698;2023-04-25T01:26:36;98557.16;;;7.58;100.00
9899;BME280;4988;49.238;6.698;2023-04-25T01:29:04;98557.16;;;7.58;100.00
9899;BME280;4988;49.238;6.698;2023-04-25T01:31:30;98564.16;;;7.59;100.00
9899;BME280;4988;49.238;6.698;2023-04-25T01:33:56;98551.50;;;7.45;100.00
9899;BME280;4988;49.238;6.698;2023-04-25T01:36:21;98556.03;;;7.43;100.00
9899;BME280;4988;49.238;6.698;2023-04-25T01:38:47;98559.59;;;7.42;100.00
9899;BME280;4988;49.238;6.698;2023-04-25T01:41:13;98557.22;;;7.36;100.00
9899;BME280;4988;49.238;6.698;2023-04-25T01:43:39;98559.78;;;7.37;100.00
9899;BME280;4988;49.238;6.698;2023-04-25T01:46:06;98553.94;;;7.29;100.00
9899;BME280;4988;49.238;6.698;2023-04-25T01:48:31;98550.72;;;7.22;100.00
9899;BME280;4988;49.238;6.698;2023-04-25T01:50:56;98550.31;;;7.11;100.00
9899;BME280;4988;49.238;6.698;2023-04-25T01:53:22;98552.06;;;7.11;100.00
9899;BME280;4988;49.238;6.698;2023-04-25T01:55:47;98546.41;;;7.20;100.00
9899;BME280;4988;49.238;6.698;2023-04-25T01:58:13;98546.72;;;7.33;100.00
9899;BME280;4988;49.238;6.698;2023-04-25T02:00:39;98545.63;;;7.38;100.00
9899;BME280;4988;49.238;6.698;2023-04-25T02:03:06;98548.84;;;7.45;100.00
9899;BME280;4988;49.238;6.698;2023-04-25T02:05:38;98554.97;;;7.47;100.00
9899;BME280;4988;49.238;6.698;2023-04-25T02:08:05;98548.41;;;7.56;100.00
9899;BME280;4988;49.238;6.698;2023-04-25T02:10:31;98548.66;;;7.50;100.00
9899;BME280;4988;49.238;6.698;2023-04-25T02:12:57;98546.66;;;7.55;100.00
9899;BME280;4988;49.238;6.698;2023-04-25T02:15:23;98538.69;;;7.56;100.00
9899;BME280;4988;49.238;6.698;2023-04-25T02:17:49;98532.31;;;7.61;100.00
9899;BME280;4988;49.238;6.698;2023-04-25T02:20:14;98531.38;;;7.62;100.00
9899;BME280;4988;49.238;6.698;2023-04-25T02:22:41;98530.41;;;7.64;100.00
9899;BME280;4988;49.238;6.698;2023-04-25T02:25:07;98530.78;;;7.55;100.00
9899;BME280;4988;49.238;6.698;2023-04-25T02:27:34;98525.44;;;7.56;100.00
9899;BME280;4988;49.238;6.698;2023-04-25T02:29:59;98529.66;;;7.61;100.00
9899;BME280;4988;49.238;6.698;2023-04-25T02:32:25;98523.72;;;7.55;100.00
9899;BME280;4988;49.238;6.698;2023-04-25T02:34:50;98520.78;;;7.62;100.00
9899;BME280;4988;49.238;6.698;2023-04-25T02:37:15;98524.81;;;7.50;100.00
9899;BME280;4988;49.238;6.698;2023-04-25T02:39:41;98524.56;;;7.35;100.00
9899;BME280;4988;49.238;6.698;2023-04-25T02:42:06;98521.97;;;7.34;100.00
9899;BME280;4988;49.238;6.698;2023-04-25T02:44:31;98531.66;;;7.35;100.00
9899;BME280;4988;49.238;6.698;2023-04-25T02:46:57;98531.19;;;7.25;100.00
9899;BME280;4988;49.238;6.698;2023-04-25T02:49:22;98529.69;;;7.19;100.00
9899;BME280;4988;49.238;6.698;2023-04-25T02:51:47;98527.47;;;7.29;100.00
9899;BME280;4988;49.238;6.698;2023-04-25T02:54:12;98525.44;;;7.36;100.00
9899;BME280;4988;49.238;6.698;2023-04-25T02:56:38;98517.16;;;7.44;100.00
9899;BME280;4988;49.238;6.698;2023-04-25T02:59:03;98513.72;;;7.42;100.00
9899;BME280;4988;49.238;6.698;2023-04-25T03:01:28;98515.13;;;7.50;100.00
9899;BME280;4988;49.238;6.698;2023-04-25T03:03:54;98513.31;;;7.51;100.00
9899;BME280;4988;49.238;6.698;2023-04-25T03:06:19;98513.19;;;7.54;100.00
9899;BME280;4988;49.238;6.698;2023-04-25T03:08:45;98512.47;;;7.50;100.00
9899;BME280;4988;49.238;6.698;2023-04-25T03:11:10;98515.50;;;7.41;100.00
9899;BME280;4988;49.238;6.698;2023-04-25T03:13:35;98517.28;;;7.20;100.00
9899;BME280;4988;49.238;6.698;2023-04-25T03:16:01;98512.53;;;7.28;100.00
9899;BME280;4988;49.238;6.698;2023-04-25T03:18:26;98514.91;;;7.14;100.00
9899;BME280;4988;49.238;6.698;2023-04-25T03:20:51;98519.25;;;6.94;100.00
9899;BME280;4988;49.238;6.698;2023-04-25T03:23:17;98512.13;;;6.96;100.00
9899;BME280;4988;49.238;6.698;2023-04-25T03:25:42;98506.88;;;7.15;100.00
9899;BME280;4988;49.238;6.698;2023-04-25T03:28:08;98505.59;;;7.26;100.00
9899;BME280;4988;49.238;6.698;2023-04-25T03:30:33;98497.56;;;7.27;100.00
9899;BME280;4988;49.238;6.698;2023-04-25T03:32:58;98507.25;;;7.28;100.00
9899;BME280;4988;49.238;6.698;2023-04-25T03:35:24;98517.16;;;7.02;100.00
9899;BME280;4988;49.238;6.698;2023-04-25T03:37:49;98517.66;;;6.90;100.00
9899;BME280;4988;49.238;6.698;2023-04-25T03:40:15;98530.75;;;6.93;100.00
9899;BME280;4988;49.238;6.698;2023-04-25T03:42:40;98530.66;;;6.95;100.00
9899;BME280;4988;49.238;6.698;2023-04-25T03:45:06;98528.09;;;6.93;100.00
9899;BME280;4988;49.238;6.698;2023-04-25T03:47:32;98534.13;;;6.74;100.00
9899;BME280;4988;49.238;6.698;2023-04-25T03:49:57;98533.09;;;6.79;100.00
9899;BME280;4988;49.238;6.698;2023-04-25T03:52:22;98527.69;;;6.82;100.00
9899;BME280;4988;49.238;6.698;2023-04-25T03:54:48;98526.38;;;6.92;100.00
9899;BME280;4988;49.238;6.698;2023-04-25T03:57:13;98521.75;;;6.97;100.00
9899;BME280;4988;49.238;6.698;2023-04-25T03:59:39;98529.56;;;7.00;100.00
9899;BME280;4988;49.238;6.698;2023-04-25T04:02:05;98529.38;;;7.05;100.00
9899;BME280;4988;49.238;6.698;2023-04-25T04:04:31;98531.63;;;7.14;100.00
9899;BME280;4988;49.238;6.698;2023-04-25T04:06:56;98526.16;;;7.19;100.00
9899;BME280;4988;49.238;6.698;2023-04-25T04:09:21;98529.41;;;7.26;100.00
9899;BME280;4988;49.238;6.698;2023-04-25T04:11:47;98524.72;;;7.32;100.00
9899;BME280;4988;49.238;6.698;2023-04-25T04:14:12;98522.59;;;7.40;100.00
9899;BME280;4988;49.238;6.698;2023-04-25T04:16:38;98528.56;;;7.46;100.00
9899;BME280;4988;49.238;6.698;2023-04-25T04:19:03;98527.28;;;7.54;100.00
9899;BME280;4988;49.238;6.698;2023-04-25T04:21:28;98528.00;;;7.58;100.00
9899;BME280;4988;49.238;6.698;2023-04-25T04:23:53;98534.38;;;7.54;100.00
9899;BME280;4988;49.238;6.698;2023-04-25T04:26:23;98527.09;;;7.59;100.00
9899;BME280;4988;49.238;6.698;2023-04-25T04:28:51;98519.00;;;7.62;100.00
9899;BME280;4988;49.238;6.698;2023-04-25T04:31:22;98515.50;;;7.62;100.00
9899;BME280;4988;49.238;6.698;2023-04-25T04:33:47;98527.81;;;7.63;100.00
9899;BME280;4988;49.238;6.698;2023-04-25T04:36:13;98521.13;;;7.54;100.00
9899;BME280;4988;49.238;6.698;2023-04-25T04:38:39;98533.31;;;7.37;100.00
9899;BME280;4988;49.238;6.698;2023-04-25T04:41:05;98537.91;;;7.12;100.00
9899;BME280;4988;49.238;6.698;2023-04-25T04:43:30;98545.56;;;6.97;100.00
9899;BME280;4988;49.238;6.698;2023-04-25T04:46:00;98546.88;;;6.87;100.00
9899;BME280;4988;49.238;6.698;2023-04-25T04:48:25;98540.06;;;6.81;100.00
9899;BME280;4988;49.238;6.698;2023-04-25T04:50:51;98538.19;;;6.83;100.00
9899;BME280;4988;49.238;6.698;2023-04-25T04:53:16;98547.00;;;6.84;100.00
9899;BME280;4988;49.238;6.698;2023-04-25T04:55:42;98553.31;;;6.80;100.00
9899;BME280;4988;49.238;6.698;2023-04-25T04:58:08;98557.88;;;6.76;100.00
9899;BME280;4988;49.238;6.698;2023-04-25T05:00:33;98551.59;;;6.79;100.00
9899;BME280;4988;49.238;6.698;2023-04-25T05:02:59;98553.41;;;6.78;100.00
9899;BME280;4988;49.238;6.698;2023-04-25T05:05:25;98552.31;;;6.84;100.00
9899;BME280;4988;49.238;6.698;2023-04-25T05:07:51;98554.88;;;6.85;100.00
9899;BME280;4988;49.238;6.698;2023-04-25T05:10:17;98559.84;;;6.93;100.00
9899;BME280;4988;49.238;6.698;2023-04-25T05:12:43;98560.75;;;6.92;100.00
9899;BME280;4988;49.238;6.698;2023-04-25T05:15:09;98558.63;;;6.80;100.00
9899;BME280;4988;49.238;6.698;2023-04-25T05:17:34;98564.16;;;6.73;100.00
9899;BME280;4988;49.238;6.698;2023-04-25T05:20:00;98569.69;;;6.67;100.00
9899;BME280;4988;49.238;6.698;2023-04-25T05:22:25;98568.84;;;6.67;100.00
9899;BME280;4988;49.238;6.698;2023-04-25T05:24:51;98571.66;;;6.62;100.00
9899;BME280;4988;49.238;6.698;2023-04-25T05:27:17;98573.50;;;6.60;100.00
9899;BME280;4988;49.238;6.698;2023-04-25T05:29:43;98587.69;;;6.57;100.00
9899;BME280;4988;49.238;6.698;2023-04-25T05:32:08;98580.41;;;6.64;100.00
9899;BME280;4988;49.238;6.698;2023-04-25T05:34:34;98588.19;;;6.67;100.00
9899;BME280;4988;49.238;6.698;2023-04-25T05:36:59;98594.06;;;6.75;100.00
9899;BME280;4988;49.238;6.698;2023-04-25T05:39:25;98592.22;;;6.78;100.00
9899;BME280;4988;49.238;6.698;2023-04-25T05:41:51;98585.81;;;6.83;100.00
9899;BME280;4988;49.238;6.698;2023-04-25T05:44:16;98589.19;;;6.87;100.00
9899;BME280;4988;49.238;6.698;2023-04-25T05:46:42;98593.44;;;6.91;100.00
9899;BME280;4988;49.238;6.698;2023-04-25T05:49:07;98593.69;;;6.85;100.00
9899;BME280;4988;49.238;6.698;2023-04-25T05:51:33;98594.81;;;7.01;100.00
9899;BME280;4988;49.238;6.698;2023-04-25T05:53:58;98595.66;;;7.02;100.00
9899;BME280;4988;49.238;6.698;2023-04-25T05:56:23;98602.81;;;7.00;100.00
9899;BME280;4988;49.238;6.698;2023-04-25T05:58:48;98606.38;;;6.99;100.00
9899;BME280;4988;49.238;6.698;2023-04-25T06:01:14;98609.81;;;7.01;100.00
9899;BME280;4988;49.238;6.698;2023-04-25T06:03:39;98610.19;;;6.91;100.00
9899;BME280;4988;49.238;6.698;2023-04-25T06:06:08;98611.03;;;6.92;100.00
9899;BME280;4988;49.238;6.698;2023-04-25T06:08:33;98612.91;;;7.12;100.00
9899;BME280;4988;49.238;6.698;2023-04-25T06:10:59;98609.38;;;7.12;100.00
9899;BME280;4988;49.238;6.698;2023-04-25T06:13:24;98617.22;;;7.15;100.00
9899;BME280;4988;49.238;6.698;2023-04-25T06:15:49;98611.41;;;7.27;100.00
9899;BME280;4988;49.238;6.698;2023-04-25T06:18:15;98612.66;;;7.39;100.00
9899;BME280;4988;49.238;6.698;2023-04-25T06:20:40;98609.56;;;7.50;100.00
9899;BME280;4988;49.238;6.698;2023-04-25T06:23:05;98613.63;;;7.38;100.00
9899;BME280;4988;49.238;6.698;2023-04-25T06:25:30;98628.88;;;7.31;100.00
9899;BME280;4988;49.238;6.698;2023-04-25T06:27:56;98622.78;;;7.29;100.00
9899;BME280;4988;49.238;6.698;2023-04-25T06:30:21;98627.78;;;7.37;100.00
9899;BME280;4988;49.238;6.698;2023-04-25T06:32:51;98635.28;;;7.48;100.00
9899;BME280;4988;49.238;6.698;2023-04-25T06:35:16;98633.81;;;7.61;100.00
9899;BME280;4988;49.238;6.698;2023-04-25T06:37:42;98631.81;;;7.46;100.00
9899;BME280;4988;49.238;6.698;2023-04-25T06:40:08;98631.22;;;7.60;100.00
9899;BME280;4988;49.238;6.698;2023-04-25T06:42:33;98633.16;;;7.56;100.00
9899;BME280;4988;49.238;6.698;2023-04-25T06:44:58;98638.34;;;7.59;100.00
9899;BME280;4988;49.238;6.698;2023-04-25T06:47:24;98637.94;;;7.68;100.00
9899;BME280;4988;49.238;6.698;2023-04-25T06:49:49;98638.19;;;7.62;100.00
9899;BME280;4988;49.238;6.698;2023-04-25T06:52:15;98639.91;;;7.63;100.00
9899;BME280;4988;49.238;6.698;2023-04-25T06:54:40;98638.41;;;7.57;100.00
9899;BME280;4988;49.238;6.698;2023-04-25T06:57:06;98642.50;;;7.65;100.00
9899;BME280;4988;49.238;6.698;2023-04-25T06:59:31;98645.56;;;7.76;100.00
9899;BME280;4988;49.238;6.698;2023-04-25T07:01:57;98647.53;;;7.92;100.00
9899;BME280;4988;49.238;6.698;2023-04-25T07:04:23;98648.09;;;8.00;100.00
9899;BME280;4988;49.238;6.698;2023-04-25T07:06:48;98653.38;;;8.00;100.00
9899;BME280;4988;49.238;6.698;2023-04-25T07:09:14;98660.81;;;8.12;100.00
9899;BME280;4988;49.238;6.698;2023-04-25T07:11:39;98663.91;;;8.22;100.00
9899;BME280;4988;49.238;6.698;2023-04-25T07:14:05;98668.38;;;8.41;100.00
9899;BME280;4988;49.238;6.698;2023-04-25T07:16:30;98668.22;;;8.44;100.00
9899;BME280;4988;49.238;6.698;2023-04-25T07:18:55;98659.44;;;8.43;100.00
9899;BME280;4988;49.238;6.698;2023-04-25T07:21:21;98665.72;;;8.41;100.00
9899;BME280;4988;49.238;6.698;2023-04-25T07:23:46;98670.13;;;8.42;100.00
9899;BME280;4988;49.238;6.698;2023-04-25T07:26:11;98668.31;;;8.42;100.00
9899;BME280;4988;49.238;6.698;2023-04-25T07:28:37;98670.84;;;8.45;100.00
9899;BME280;4988;49.238;6.698;2023-04-25T07:31:02;98667.88;;;8.53;100.00
9899;BME280;4988;49.238;6.698;2023-04-25T07:33:28;98668.09;;;8.67;100.00
9899;BME280;4988;49.238;6.698;2023-04-25T07:35:53;98666.88;;;8.75;100.00
9899;BME280;4988;49.238;6.698;2023-04-25T07:38:19;98665.88;;;8.77;100.00
9899;BME280;4988;49.238;6.698;2023-04-25T07:40:45;98666.00;;;8.74;100.00
9899;BME280;4988;49.238;6.698;2023-04-25T07:43:10;98671.25;;;8.76;100.00
9899;BME280;4988;49.238;6.698;2023-04-25T07:45:39;98671.19;;;8.96;100.00
9899;BME280;4988;49.238;6.698;2023-04-25T07:48:04;98675.47;;;8.99;100.00
9899;BME280;4988;49.238;6.698;2023-04-25T07:50:30;98683.94;;;9.07;100.00
9899;BME280;4988;49.238;6.698;2023-04-25T07:52:56;98680.44;;;9.07;100.00
9899;BME280;4988;49.238;6.698;2023-04-25T07:55:21;98685.25;;;8.98;98.94
9899;BME280;4988;49.238;6.698;2023-04-25T07:57:46;98695.34;;;8.90;98.93
9899;BME280;4988;49.238;6.698;2023-04-25T08:00:12;98684.53;;;8.95;98.41
9899;BME280;4988;49.238;6.698;2023-04-25T08:02:38;98698.38;;;9.01;98.80
9899;BME280;4988;49.238;6.698;2023-04-25T08:05:03;98702.31;;;8.93;100.00
9899;BME280;4988;49.238;6.698;2023-04-25T08:07:29;98701.88;;;8.83;100.00
9899;BME280;4988;49.238;6.698;2023-04-25T08:09:54;98707.84;;;8.88;100.00
9899;BME280;4988;49.238;6.698;2023-04-25T08:12:20;98708.63;;;8.71;100.00
9899;BME280;4988;49.238;6.698;2023-04-25T08:14:45;98710.13;;;8.77;100.00
9899;BME280;4988;49.238;6.698;2023-04-25T08:17:10;98712.22;;;8.89;100.00
9899;BME280;4988;49.238;6.698;2023-04-25T08:19:36;98709.94;;;9.00;99.91
9899;BME280;4988;49.238;6.698;2023-04-25T08:22:01;98723.84;;;9.06;100.00
9899;BME280;4988;49.238;6.698;2023-04-25T08:24:27;98723.69;;;8.90;100.00
9899;BME280;4988;49.238;6.698;2023-04-25T08:26:52;98737.41;;;8.60;100.00
9899;BME280;4988;49.238;6.698;2023-04-25T08:29:17;98739.69;;;8.48;100.00
9899;BME280;4988;49.238;6.698;2023-04-25T08:31:43;98735.63;;;8.40;100.00
9899;BME280;4988;49.238;6.698;2023-04-25T08:34:08;98738.84;;;8.48;100.00
9899;BME280;4988;49.238;6.698;2023-04-25T08:36:34;98740.59;;;8.47;100.00
9899;BME280;4988;49.238;6.698;2023-04-25T08:38:59;98748.59;;;8.46;100.00
9899;BME280;4988;49.238;6.698;2023-04-25T08:41:26;98750.81;;;8.57;100.00
9899;BME280;4988;49.238;6.698;2023-04-25T08:43:53;98751.81;;;8.75;100.00
9899;BME280;4988;49.238;6.698;2023-04-25T08:46:20;98749.25;;;8.92;100.00
9899;BME280;4988;49.238;6.698;2023-04-25T08:48:46;98754.28;;;8.98;100.00
9899;BME280;4988;49.238;6.698;2023-04-25T08:51:22;98747.38;;;9.13;100.00
9899;BME280;4988;49.238;6.698;2023-04-25T08:53:51;98754.13;;;9.21;99.75
9899;BME280;4988;49.238;6.698;2023-04-25T08:56:17;98753.69;;;9.30;99.25
9899;BME280;4988;49.238;6.698;2023-04-25T08:58:45;98756.63;;;9.43;99.87
9899;BME280;4988;49.238;6.698;2023-04-25T09:01:11;98757.16;;;9.51;100.00
9899;BME280;4988;49.238;6.698;2023-04-25T09:03:36;98767.19;;;9.63;100.00
9899;BME280;4988;49.238;6.698;2023-04-25T09:06:02;98767.00;;;9.66;97.48
9899;BME280;4988;49.238;6.698;2023-04-25T09:08:27;98772.50;;;9.63;95.74
9899;BME280;4988;49.238;6.698;2023-04-25T09:10:52;98784.06;;;9.62;96.11
9899;BME280;4988;49.238;6.698;2023-04-25T09:13:25;98788.56;;;9.60;97.43
9899;BME280;4988;49.238;6.698;2023-04-25T09:15:53;98784.84;;;9.64;95.66
9899;BME280;4988;49.238;6.698;2023-04-25T09:18:26;98791.44;;;9.56;93.71
9899;BME280;4988;49.238;6.698;2023-04-25T09:23:45;98800.06;;;9.42;93.16
9899;BME280;4988;49.238;6.698;2023-04-25T09:26:14;98804.53;;;9.41;94.04
9899;BME280;4988;49.238;6.698;2023-04-25T09:28:40;98813.13;;;9.27;98.13
9899;BME280;4988;49.238;6.698;2023-04-25T09:31:05;98818.63;;;9.04;97.18
9899;BME280;4988;49.238;6.698;2023-04-25T09:33:32;98824.69;;;8.87;99.29
9899;BME280;4988;49.238;6.698;2023-04-25T09:36:03;98819.72;;;8.79;100.00
9899;BME280;4988;49.238;6.698;2023-04-25T09:38:30;98827.38;;;8.44;100.00
9899;BME280;4988;49.238;6.698;2023-04-25T09:40:56;98827.63;;;8.37;100.00
9899;BME280;4988;49.238;6.698;2023-04-25T09:43:23;98824.72;;;8.23;98.22
9899;BME280;4988;49.238;6.698;2023-04-25T09:45:52;98824.84;;;8.20;99.58
9899;BME280;4988;49.238;6.698;2023-04-25T09:48:19;98837.97;;;8.23;100.00
9899;BME280;4988;49.238;6.698;2023-04-25T09:51:03;98840.78;;;8.41;99.53
9899;BME280;4988;49.238;6.698;2023-04-25T09:53:29;98838.75;;;8.47;100.00
9899;BME280;4988;49.238;6.698;2023-04-25T09:55:55;98838.00;;;8.44;100.00
9899;BME280;4988;49.238;6.698;2023-04-25T09:58:24;98847.53;;;8.49;100.00
9899;BME280;4988;49.238;6.698;2023-04-25T10:00:51;98836.47;;;8.60;100.00
9899;BME280;4988;49.238;6.698;2023-04-25T10:03:17;98839.22;;;8.78;100.00
9899;BME280;4988;49.238;6.698;2023-04-25T10:05:46;98843.88;;;8.93;100.00
9899;BME280;4988;49.238;6.698;2023-04-25T10:08:14;98847.16;;;9.19;100.00
9899;BME280;4988;49.238;6.698;2023-04-25T10:10:41;98843.66;;;9.38;100.00
9899;BME280;4988;49.238;6.698;2023-04-25T10:13:08;98842.66;;;9.59;100.00
9899;BME280;4988;49.238;6.698;2023-04-25T10:15:35;98837.56;;;9.74;100.00
9899;BME280;4988;49.238;6.698;2023-04-25T10:18:01;98840.63;;;9.84;100.00
9899;BME280;4988;49.238;6.698;2023-04-25T10:20:28;98846.03;;;9.82;99.58
9899;BME280;4988;49.238;6.698;2023-04-25T10:22:55;98847.09;;;9.97;100.00
9899;BME280;4988;49.238;6.698;2023-04-25T10:25:23;98852.53;;;10.13;100.00
9899;BME280;4988;49.238;6.698;2023-04-25T10:27:52;98848.75;;;10.17;96.11
9899;BME280;4988;49.238;6.698;2023-04-25T10:30:18;98848.53;;;10.22;90.26
9899;BME280;4988;49.238;6.698;2023-04-25T10:32:44;98852.72;;;10.27;84.63
9899;BME280;4988;49.238;6.698;2023-04-25T10:35:23;98848.66;;;10.38;87.07
9899;BME280;4988;49.238;6.698;2023-04-25T10:38:08;98843.56;;;10.51;83.45
9899;BME280;4988;49.238;6.698;2023-04-25T10:40:34;98853.69;;;10.61;83.25
9899;BME280;4988;49.238;6.698;2023-04-25T10:45:59;98855.22;;;11.01;79.87
9899;BME280;4988;49.238;6.698;2023-04-25T10:48:29;98855.69;;;11.09;79.51
9899;BME280;4988;49.238;6.698;2023-04-25T10:51:11;98850.56;;;11.22;78.31
9899;BME280;4988;49.238;6.698;2023-04-25T10:53:40;98855.78;;;11.41;77.66
9899;BME280;4988;49.238;6.698;2023-04-25T10:56:31;98843.91;;;11.63;75.99
9899;BME280;4988;49.238;6.698;2023-04-25T10:59:16;98849.59;;;11.56;73.69
9899;BME280;4988;49.238;6.698;2023-04-25T11:01:44;98848.78;;;11.22;75.90
9899;BME280;4988;49.238;6.698;2023-04-25T11:04:20;98856.63;;;11.08;76.29
9899;BME280;4988;49.238;6.698;2023-04-25T11:09:35;98863.47;;;10.78;74.84
9899;BME280;4988;49.238;6.698;2023-04-25T11:12:03;98857.22;;;10.62;74.55
9899;BME280;4988;49.238;6.698;2023-04-25T11:14:28;98863.72;;;10.56;78.86
9899;BME280;4988;49.238;6.698;2023-04-25T11:16:55;98862.91;;;10.54;78.44
9899;BME280;4988;49.238;6.698;2023-04-25T11:19:24;98869.59;;;10.63;77.60
9899;BME280;4988;49.238;6.698;2023-04-25T11:21:50;98869.50;;;10.65;77.33
9899;BME280;4988;49.238;6.698;2023-04-25T11:24:16;98873.41;;;10.75;78.06
9899;BME280;4988;49.238;6.698;2023-04-25T11:26:43;98881.50;;;10.73;73.58
9899;BME280;4988;49.238;6.698;2023-04-25T11:29:09;98871.88;;;10.71;72.35
9899;BME280;4988;49.238;6.698;2023-04-25T11:31:34;98882.75;;;10.66;73.87
9899;BME280;4988;49.238;6.698;2023-04-25T11:34:00;98868.41;;;10.69;72.24
9899;BME280;4988;49.238;6.698;2023-04-25T11:36:26;98875.16;;;10.76;73.16
9899;BME280;4988;49.238;6.698;2023-04-25T11:38:52;98876.69;;;10.80;73.95
9899;BME280;4988;49.238;6.698;2023-04-25T11:41:19;98878.75;;;10.75;74.37
9899;BME280;4988;49.238;6.698;2023-04-25T11:43:44;98874.63;;;10.69;78.32
9899;BME280;4988;49.238;6.698;2023-04-25T11:46:10;98868.09;;;10.57;78.67
9899;BME280;4988;49.238;6.698;2023-04-25T11:48:42;98878.84;;;10.56;78.94
9899;BME280;4988;49.238;6.698;2023-04-25T11:51:08;98883.44;;;10.52;79.61
9899;BME280;4988;49.238;6.698;2023-04-25T11:53:34;98878.75;;;10.40;79.66
9899;BME280;4988;49.238;6.698;2023-04-25T11:55:59;98888.66;;;10.36;78.77
9899;BME280;4988;49.238;6.698;2023-04-25T11:58:28;98892.75;;;10.24;80.19
9899;BME280;4988;49.238;6.698;2023-04-25T12:00:53;98889.25;;;10.24;80.24
9899;BME280;4988;49.238;6.698;2023-04-25T12:03:19;98894.41;;;10.27;77.60
9899;BME280;4988;49.238;6.698;2023-04-25T12:05:45;98896.22;;;10.26;79.32
9899;BME280;4988;49.238;6.698;2023-04-25T12:08:17;98899.59;;;10.30;78.60
9899;BME280;4988;49.238;6.698;2023-04-25T12:10:44;98898.69;;;10.29;81.15
9899;BME280;4988;49.238;6.698;2023-04-25T12:13:25;98903.63;;;10.39;82.87
9899;BME280;4988;49.238;6.698;2023-04-25T12:15:51;98901.47;;;10.65;83.11
9899;BME280;4988;49.238;6.698;2023-04-25T12:18:22;98903.19;;;10.83;78.08
9899;BME280;4988;49.238;6.698;2023-04-25T12:20:48;98900.13;;;10.91;76.45
9899;BME280;4988;49.238;6.698;2023-04-25T12:23:13;98902.38;;;10.99;75.77
9899;BME280;4988;49.238;6.698;2023-04-25T12:25:43;98908.34;;;11.04;77.09
9899;BME280;4988;49.238;6.698;2023-04-25T12:31:02;98903.09;;;11.20;74.79
9899;BME280;4988;49.238;6.698;2023-04-25T12:33:29;98898.59;;;11.20;75.92
9899;BME280;4988;49.238;6.698;2023-04-25T12:35:56;98903.53;;;11.28;74.82
9899;BME280;4988;49.238;6.698;2023-04-25T12:38:29;98897.34;;;11.27;74.58
9899;BME280;4988;49.238;6.698;2023-04-25T12:40:56;98910.19;;;11.19;72.63
9899;BME280;4988;49.238;6.698;2023-04-25T12:43:21;98918.19;;;11.19;72.98
9899;BME280;4988;49.238;6.698;2023-04-25T12:45:51;98919.31;;;11.15;72.50
9899;BME280;4988;49.238;6.698;2023-04-25T12:48:17;98913.19;;;11.13;71.74
9899;BME280;4988;49.238;6.698;2023-04-25T12:50:43;98925.03;;;11.07;73.10
9899;BME280;4988;49.238;6.698;2023-04-25T12:53:10;98919.63;;;11.09;73.10
9899;BME280;4988;49.238;6.698;2023-04-25T12:55:36;98927.00;;;11.04;74.89
9899;BME280;4988;49.238;6.698;2023-04-25T12:58:01;98922.44;;;11.06;77.05
9899;BME280;4988;49.238;6.698;2023-04-25T13:00:28;98922.84;;;10.98;75.06
9899;BME280;4988;49.238;6.698;2023-04-25T13:02:54;98927.38;;;10.96;73.35
9899;BME280;4988;49.238;6.698;2023-04-25T13:05:19;98923.25;;;10.90;73.06
9899;BME280;4988;49.238;6.698;2023-04-25T13:07:45;98928.56;;;10.90;73.76
9899;BME280;4988;49.238;6.698;2023-04-25T13:10:10;98927.38;;;10.96;72.77
9899;BME280;4988;49.238;6.698;2023-04-25T13:12:36;98928.25;;;10.97;72.97
9899;BME280;4988;49.238;6.698;2023-04-25T13:15:01;98923.84;;;10.96;72.15
9899;BME280;4988;49.238;6.698;2023-04-25T13:17:27;98915.63;;;11.00;72.22
9899;BME280;4988;49.238;6.698;2023-04-25T13:19:52;98921.41;;;11.08;72.90
9899;BME280;4988;49.238;6.698;2023-04-25T13:22:17;98920.34;;;11.13;72.02
9899;BME280;4988;49.238;6.698;2023-04-25T13:24:45;98917.56;;;11.14;71.44
9899;BME280;4988;49.238;6.698;2023-04-25T13:27:11;98912.53;;;11.25;71.89
9899;BME280;4988;49.238;6.698;2023-04-25T13:29:36;98910.44;;;11.32;70.52